Terminal Aerodrome Forecast
Issued by NWS

Home | Current Version | Previous Version | Text Only | Print | Product List | Glossary On
Versions: 1 2 3 4 5 6 7 8 9 10 11 12 13 14 15 16 17 18 19 20 21
000
FTUS46 KSGX 280530
TAFCRQ
TAF
KCRQ 280530Z 2806/0106 VRB04KT 3SM RA OVC009
      TEMPO 2806/2808 2SM RA BKN004
     FM280800 VRB04KT P6SM SCT009 BKN015
     FM281400 VRB04KT P6SM SCT015 BKN025
     FM281800 26008KT P6SM SCT030
     FM010000 VRB04KT P6SM SKC=

USA.gov is the U.S. government's official web portal to all federal, state and local government web resources and services.